Terminal Aerodrome Forecast
Issued by NWS Jackson, MS

Home | Current Version | Previous Version | Text Only | Print | Product List | Glossary On
Versions: 1 2 3 4 5 6 7 8 9 10 11 12 13 14 15 16
000
FTUS44 KJAN 182335
TAFGLH
TAF
KGLH 182335Z 1900/1924 17005KT P6SM OVC011
     FM190700 18010G19KT P6SM BKN130 BKN250
     FM191500 18014G22KT P6SM BKN025 BKN250
     FM191600 18015KT P6SM BKN015 BKN250
     FM191800 18016KT P6SM BKN050 BKN250=

USA.gov is the U.S. government's official web portal to all federal, state and local government web resources and services.